createdAt,value
2019-01-31T15:40:01.356Z,3.44
2019-01-31T15:40:40.211Z,3.49
2019-01-31T15:41:40.202Z,3.46
2019-01-31T15:42:40.194Z,3.52
2019-01-31T15:43:40.177Z,3.42
2019-01-31T15:44:43.328Z,3.39
2019-01-31T15:45:40.168Z,3.42
2019-01-31T15:46:40.295Z,3.45
2019-01-31T15:47:40.191Z,3.42
2019-01-31T15:48:40.267Z,3.45
2019-01-31T15:49:41.321Z,3.45
2019-01-31T15:50:40.977Z,3.42
2019-01-31T15:51:40.085Z,3.37
2019-01-31T15:52:40.189Z,3.41
2019-01-31T15:53:40.100Z,3.41
2019-01-31T15:54:40.157Z,3.42
2019-01-31T15:55:40.356Z,3.35
2019-01-31T15:56:40.115Z,3.26
2019-01-31T15:57:42.906Z,3.26
2019-01-31T15:58:40.077Z,3.30
2019-01-31T15:59:40.002Z,3.34
2019-01-31T16:00:40.021Z,3.34
2019-01-31T16:01:39.975Z,3.34
2019-01-31T16:02:40.005Z,3.41
2019-01-31T16:03:39.961Z,3.31
2019-01-31T16:04:39.988Z,3.34
2019-01-31T16:05:39.949Z,3.39
2019-01-31T16:06:39.969Z,3.39
2019-01-31T16:07:39.913Z,3.34
2019-01-31T16:08:39.947Z,3.31
2019-01-31T16:09:39.882Z,3.30
2019-01-31T16:10:41.954Z,3.25
2019-01-31T16:11:39.930Z,3.26
2019-01-31T16:12:39.971Z,3.23
2019-01-31T16:13:39.843Z,3.20
2019-01-31T16:14:39.895Z,3.26
2019-01-31T16:15:39.866Z,3.20
2019-01-31T16:16:39.925Z,3.17
2019-01-31T16:17:39.799Z,3.15
2019-01-31T16:18:39.810Z,3.16
2019-01-31T16:19:39.824Z,3.04
2019-01-31T16:20:39.778Z,3.12
2019-01-31T16:21:39.817Z,2.97
2019-01-31T16:22:39.749Z,2.94
2019-01-31T16:23:39.731Z,2.81
2019-01-31T16:24:39.743Z,2.79
2019-01-31T16:25:39.703Z,2.81
2019-01-31T16:26:39.731Z,2.74
2019-01-31T16:27:39.681Z,2.69
2019-01-31T16:28:39.677Z,2.71
2019-01-31T16:29:39.687Z,2.69
2019-01-31T16:30:39.738Z,2.66
2019-01-31T16:31:39.659Z,2.61
2019-01-31T16:32:39.641Z,2.56
2019-01-31T16:33:39.613Z,2.48
2019-01-31T16:34:40.387Z,2.53
2019-01-31T16:35:39.610Z,2.56
2019-01-31T16:36:39.607Z,2.44
2019-01-31T16:37:39.572Z,2.40
2019-01-31T16:38:39.567Z,2.44
2019-01-31T16:39:39.554Z,2.29
2019-01-31T16:40:39.554Z,2.37
2019-01-31T16:41:39.567Z,2.30
2019-01-31T16:42:39.526Z,2.32
2019-01-31T16:43:39.499Z,2.33
2019-01-31T16:44:39.510Z,2.30
2019-01-31T16:45:39.482Z,2.36
2019-01-31T16:46:39.485Z,2.33
2019-01-31T16:47:39.478Z,2.30
2019-01-31T16:48:39.456Z,2.30
2019-01-31T16:49:39.429Z,2.29
2019-01-31T16:50:39.517Z,2.26
2019-01-31T16:51:39.437Z,2.18
2019-01-31T16:52:39.441Z,2.19
2019-01-31T16:53:39.392Z,2.25
2019-01-31T16:54:39.399Z,2.11
2019-01-31T16:55:39.372Z,2.12
2019-01-31T16:56:39.369Z,2.22
2019-01-31T16:57:39.395Z,2.08
2019-01-31T16:58:39.351Z,2.14
2019-01-31T16:59:39.343Z,2.09
2019-01-31T17:00:39.331Z,2.19
2019-01-31T17:01:39.322Z,2.14
2019-01-31T17:02:39.311Z,2.20
2019-01-31T17:03:39.316Z,2.18
2019-01-31T17:04:39.278Z,2.12
2019-01-31T17:05:39.448Z,2.11
2019-01-31T17:06:39.330Z,2.01
2019-01-31T17:07:39.263Z,2.12
2019-01-31T17:08:39.263Z,2.01
2019-01-31T17:09:39.514Z,2.05
2019-01-31T17:10:39.272Z,2.09
2019-01-31T17:11:39.186Z,2.02
2019-01-31T17:12:39.320Z,2.02
2019-01-31T17:13:39.173Z,2.08
2019-01-31T17:14:39.192Z,1.95
2019-01-31T17:15:39.154Z,2.00
2019-01-31T17:16:39.144Z,2.01
2019-01-31T17:17:39.182Z,1.95
2019-01-31T17:18:39.231Z,1.88
2019-01-31T17:19:39.114Z,1.88
2019-01-31T17:20:40.488Z,1.88
2019-01-31T17:21:39.967Z,1.89
2019-01-31T17:22:39.184Z,1.83
2019-01-31T17:23:39.082Z,1.83
2019-01-31T17:24:39.225Z,1.74
2019-01-31T17:25:39.148Z,1.79
2019-01-31T17:26:39.087Z,1.77
2019-01-31T17:27:41.473Z,1.81
2019-01-31T17:28:39.117Z,1.77
2019-01-31T17:29:39.828Z,1.74
2019-01-31T17:30:39.029Z,1.71
2019-01-31T17:31:38.967Z,1.75
2019-01-31T17:32:38.966Z,1.75
2019-01-31T17:33:38.997Z,1.74
2019-01-31T17:34:39.053Z,1.65
2019-01-31T17:35:38.925Z,1.74
2019-01-31T17:36:39.017Z,1.71
2019-01-31T17:37:38.905Z,1.63
2019-01-31T17:38:39.027Z,1.65
2019-01-31T17:39:38.976Z,1.67
2019-01-31T17:40:39.038Z,1.64
2019-01-31T17:41:38.917Z,1.64
2019-01-31T17:42:38.978Z,1.65
2019-01-31T17:43:40.385Z,1.61
2019-01-31T17:44:38.890Z,1.61
2019-01-31T17:45:38.813Z,1.67
2019-01-31T17:46:38.860Z,1.61
2019-01-31T17:47:38.842Z,1.60
2019-01-31T17:48:39.101Z,1.63
2019-01-31T17:49:38.785Z,1.57
2019-01-31T17:50:38.794Z,1.63
2019-01-31T17:51:40.328Z,1.63
2019-01-31T17:52:38.982Z,1.57
2019-01-31T17:53:38.765Z,1.60
2019-01-31T17:54:38.839Z,1.63
2019-01-31T17:55:41.567Z,1.60
2019-01-31T17:56:38.808Z,1.46
2019-01-31T17:57:38.687Z,1.54
2019-01-31T17:58:38.770Z,1.56
2019-01-31T17:59:38.681Z,1.52
2019-01-31T18:00:38.736Z,1.46
2019-01-31T18:01:39.348Z,1.47
2019-01-31T18:02:45.476Z,1.44
2019-01-31T18:03:39.628Z,1.47
2019-01-31T18:04:38.710Z,1.39
2019-01-31T18:05:38.588Z,1.44
2019-01-31T18:06:38.638Z,1.42
2019-01-31T18:07:38.571Z,1.38
2019-01-31T18:08:38.616Z,1.50
2019-01-31T18:09:38.567Z,1.42
2019-01-31T18:10:38.593Z,1.36
2019-01-31T18:11:38.523Z,1.39
2019-01-31T18:12:38.548Z,1.43
2019-01-31T18:13:38.512Z,1.39
2019-01-31T18:14:38.552Z,1.38
2019-01-31T18:15:42.238Z,1.43
2019-01-31T18:16:38.486Z,1.43
2019-01-31T18:17:38.457Z,1.36
2019-01-31T18:18:38.458Z,1.39
2019-01-31T18:19:38.456Z,1.39
2019-01-31T18:20:38.530Z,1.35
2019-01-31T18:21:38.490Z,1.29
2019-01-31T18:22:38.491Z,1.29
2019-01-31T18:23:38.395Z,1.28
2019-01-31T18:24:38.494Z,1.25
2019-01-31T18:25:38.375Z,1.31
2019-01-31T18:26:38.427Z,1.25
2019-01-31T18:27:38.348Z,1.26
2019-01-31T18:28:38.396Z,1.24
2019-01-31T18:29:38.342Z,1.26
2019-01-31T18:30:39.388Z,1.20
2019-01-31T18:31:38.302Z,1.21
2019-01-31T18:32:38.326Z,1.17
2019-01-31T18:33:38.283Z,1.18
2019-01-31T18:34:38.306Z,1.17
2019-01-31T18:35:38.264Z,1.14
2019-01-31T18:36:38.370Z,1.20
2019-01-31T18:37:38.242Z,1.16
2019-01-31T18:38:38.349Z,1.13
2019-01-31T18:39:38.244Z,1.14
2019-01-31T18:40:38.305Z,1.08
2019-01-31T18:41:38.194Z,1.07
2019-01-31T18:42:38.276Z,1.04
2019-01-31T18:43:38.170Z,1.11
2019-01-31T18:44:38.282Z,1.10
2019-01-31T18:45:38.196Z,1.10
2019-01-31T18:46:38.221Z,1.11
2019-01-31T18:47:38.124Z,1.10
2019-01-31T18:48:38.242Z,1.13
2019-01-31T18:49:38.183Z,1.06
2019-01-31T18:50:38.181Z,1.13
2019-01-31T18:51:38.120Z,1.10
2019-01-31T18:52:38.114Z,1.06
2019-01-31T18:53:38.061Z,1.10
2019-01-31T18:54:38.269Z,1.11
2019-01-31T18:55:39.327Z,1.06
2019-01-31T18:56:38.172Z,1.11
2019-01-31T18:57:38.018Z,1.10
2019-01-31T18:58:38.128Z,1.11
2019-01-31T18:59:37.992Z,1.14
2019-01-31T19:00:39.057Z,1.10
2019-01-31T19:01:37.976Z,1.13
2019-01-31T19:02:38.079Z,1.07
2019-01-31T19:03:37.959Z,1.04
2019-01-31T19:04:38.022Z,1.11
2019-01-31T19:05:37.945Z,1.10
2019-01-31T19:06:38.045Z,1.06
2019-01-31T19:07:38.105Z,1.07
2019-01-31T19:08:37.973Z,1.07
2019-01-31T19:09:37.881Z,1.07
2019-01-31T19:10:43.373Z,1.06
2019-01-31T19:11:38.861Z,1.06
2019-01-31T19:12:37.898Z,1.06
2019-01-31T19:13:37.840Z,1.00
2019-01-31T19:14:37.866Z,1.02
2019-01-31T19:15:37.852Z,1.00
2019-01-31T19:16:37.943Z,1.06
2019-01-31T19:17:37.793Z,1.06
2019-01-31T19:18:37.909Z,1.02
2019-01-31T19:19:39.368Z,0.98
2019-01-31T19:20:37.880Z,1.04
2019-01-31T19:21:37.770Z,1.02
2019-01-31T19:22:37.845Z,0.93
2019-01-31T19:23:37.729Z,0.90
2019-01-31T19:24:37.867Z,0.90
2019-01-31T19:25:37.734Z,0.92
2019-01-31T19:26:37.825Z,0.98
2019-01-31T19:27:37.685Z,0.96
2019-01-31T19:28:37.746Z,0.93
2019-01-31T19:29:37.673Z,0.90
2019-01-31T19:30:37.752Z,0.98
2019-01-31T19:31:40.315Z,1.02
2019-01-31T19:32:37.683Z,1.00
2019-01-31T19:33:37.614Z,0.90
2019-01-31T19:34:37.651Z,0.95
2019-01-31T19:35:37.618Z,0.93
2019-01-31T19:36:37.654Z,0.95
2019-01-31T19:37:37.573Z,0.90
2019-01-31T19:38:37.688Z,0.90
2019-01-31T19:39:37.553Z,0.98
2019-01-31T19:40:37.659Z,0.89
2019-01-31T19:41:37.584Z,0.90
2019-01-31T19:42:37.622Z,0.89
2019-01-31T19:43:37.504Z,0.89
2019-01-31T19:44:37.604Z,0.96
2019-01-31T19:45:37.601Z,0.92
2019-01-31T19:46:37.730Z,0.96
2019-01-31T19:47:37.504Z,0.95
2019-01-31T19:48:37.602Z,0.88
2019-01-31T19:49:37.576Z,0.89
2019-01-31T19:50:37.496Z,0.95
2019-01-31T19:51:37.902Z,0.92
2019-01-31T19:52:37.473Z,0.93
2019-01-31T19:53:37.398Z,0.86
2019-01-31T19:54:37.447Z,0.90
2019-01-31T19:55:37.444Z,0.93
2019-01-31T19:56:37.446Z,0.89
2019-01-31T19:57:37.351Z,0.84
2019-01-31T19:58:39.373Z,0.82
2019-01-31T19:59:39.408Z,0.90
2019-01-31T20:00:39.148Z,0.93
2019-01-31T20:01:37.438Z,0.86
2019-01-31T20:02:37.476Z,0.86
2019-01-31T20:03:37.302Z,1.00
2019-01-31T20:04:37.383Z,0.89
2019-01-31T20:05:37.268Z,0.89
2019-01-31T20:06:38.554Z,0.84
2019-01-31T20:07:37.350Z,0.88
2019-01-31T20:08:37.316Z,0.82
2019-01-31T20:09:37.231Z,0.89
2019-01-31T20:10:38.304Z,0.88
2019-01-31T20:11:37.222Z,0.84
2019-01-31T20:12:37.271Z,0.84
2019-01-31T20:13:37.179Z,0.89
2019-01-31T20:14:37.218Z,0.81
2019-01-31T20:15:37.266Z,0.89
2019-01-31T20:16:37.184Z,0.75
2019-01-31T20:17:37.444Z,0.81
2019-01-31T20:18:37.826Z,0.82
2019-01-31T20:19:37.120Z,0.77
2019-01-31T20:20:37.235Z,0.86
2019-01-31T20:21:37.090Z,0.82
2019-01-31T20:22:37.129Z,0.80
2019-01-31T20:23:37.066Z,0.75
2019-01-31T20:24:37.166Z,0.80
2019-01-31T20:25:37.071Z,0.77
2019-01-31T20:26:37.193Z,0.77
2019-01-31T20:27:37.159Z,0.75
2019-01-31T20:28:37.107Z,0.78
2019-01-31T20:29:37.006Z,0.78
2019-01-31T20:30:39.127Z,0.75
2019-01-31T20:31:37.030Z,0.77
2019-01-31T20:32:37.089Z,0.75
2019-01-31T20:33:36.978Z,0.80
2019-01-31T20:34:38.825Z,0.78
2019-01-31T20:35:36.959Z,0.78
2019-01-31T20:36:36.971Z,0.77
2019-01-31T20:37:36.929Z,0.86
2019-01-31T20:38:36.941Z,0.86
2019-01-31T20:39:36.888Z,0.77
2019-01-31T20:40:36.912Z,0.81
2019-01-31T20:41:36.869Z,0.75
2019-01-31T20:42:36.923Z,0.68
2019-01-31T20:43:36.841Z,0.77
2019-01-31T20:44:36.946Z,0.71
2019-01-31T20:45:36.825Z,0.64
2019-01-31T20:46:40.034Z,0.67
2019-01-31T20:47:36.850Z,0.77
2019-01-31T20:48:36.954Z,0.63
2019-01-31T20:49:36.784Z,0.57
2019-01-31T20:50:36.851Z,0.68
2019-01-31T20:51:36.754Z,0.64
2019-01-31T20:52:36.858Z,0.59
2019-01-31T20:53:36.770Z,0.60
2019-01-31T20:54:36.785Z,0.62
2019-01-31T20:55:36.745Z,0.62
2019-01-31T20:56:36.756Z,0.57
2019-01-31T20:57:36.898Z,0.53
2019-01-31T20:58:36.769Z,0.52
2019-01-31T20:59:37.331Z,0.53
2019-01-31T21:00:36.700Z,0.45
2019-01-31T21:01:36.718Z,0.49
2019-01-31T21:02:36.759Z,0.43
2019-01-31T21:03:36.641Z,0.44
2019-01-31T21:04:37.763Z,0.44
2019-01-31T21:05:36.988Z,0.41
2019-01-31T21:06:41.531Z,0.37
2019-01-31T21:07:37.592Z,0.37
2019-01-31T21:08:36.777Z,0.44
2019-01-31T21:09:36.562Z,0.43
2019-01-31T21:10:36.724Z,0.41
2019-01-31T21:11:36.558Z,0.41
2019-01-31T21:12:37.624Z,0.30
2019-01-31T21:13:36.692Z,0.35
2019-01-31T21:14:36.614Z,0.33
2019-01-31T21:15:36.562Z,0.38
2019-01-31T21:16:37.567Z,0.25
2019-01-31T21:17:36.486Z,0.28
2019-01-31T21:18:37.494Z,0.33
2019-01-31T21:19:36.465Z,0.31
2019-01-31T21:20:36.591Z,0.31
2019-01-31T21:21:36.429Z,0.28
2019-01-31T21:22:36.545Z,0.28
2019-01-31T21:23:36.430Z,0.20
2019-01-31T21:24:36.455Z,0.19
2019-01-31T21:25:36.396Z,0.19
2019-01-31T21:26:36.492Z,0.20
2019-01-31T21:27:36.374Z,0.16
2019-01-31T21:28:36.450Z,0.19
2019-01-31T21:29:36.374Z,0.20
2019-01-31T21:30:36.423Z,0.28
2019-01-31T21:31:36.319Z,0.16
2019-01-31T21:32:36.392Z,0.20
2019-01-31T21:33:37.356Z,0.12
2019-01-31T21:34:36.435Z,0.20
2019-01-31T21:35:36.276Z,0.12
2019-01-31T21:36:36.326Z,0.17
2019-01-31T21:37:36.259Z,0.13
2019-01-31T21:38:36.291Z,0.15
2019-01-31T21:39:36.253Z,0.08
2019-01-31T21:40:36.260Z,0.13
2019-01-31T21:41:36.524Z,0.08
2019-01-31T21:42:36.418Z,0.08
2019-01-31T21:43:36.248Z,0.12
2019-01-31T21:44:37.112Z,0.13
2019-01-31T21:45:36.669Z,0.07
2019-01-31T21:46:36.483Z,0.04
2019-01-31T21:47:36.151Z,0.01
